メインページ
METAR-TAF:

METAR-TAF

空港 :

ドバイ国際空港

ドバイ, アラブ首長国連邦

緯度: 25-15-10N, 経度: 055-21-52E, 海抜: 8m

現時点の気象観測

当レポートは27分前の19:00(UTC)に作成
の風 4kt、北/北東から東/南東の間で変化する
気温 36°C
湿度 33%
気圧 1006 hPa
視程10km以上
1,500メートル以下は雲なし、積乱雲なし

METAR: OMDB 181900Z 08004KT 030V120 CAVOK 36/17 Q1006 NOSIG

時間: 23:27 (19:27 UTC)

予報

当レポートは2時間34分前の16:53(UTC)に作成
予報は18日の 18時(UTC)から 20日の 00時(UTC)まで有効
の風 7kt
視程10km以上
1,500メートル以下は雲なし、積乱雲なし
19日の 03時(UTC)から 19日の 05時(UTC)まで徐々に
の風 12kt
19日の 08時(UTC)から 19日の 10時(UTC)まで徐々に
西/北西の風 12kt
19日の 15時(UTC)から 19日の 17時(UTC)まで徐々に
の風 5kt

TAF: OMDB 181653Z 1818/2000 09007KT CAVOK BECMG 1903/1905 19012KT BECMG 1908/1910 29012KT BECMG 1915/1917 09005KT

4,000以上の空港の気象観測と天気予報(METAR報とTAF報)

利用可能な観測所は地図上に黄色い丸と赤い丸で示す。

丸の上にカーソルを重ねると観測所名を参照できる。

次にクリックすると気象観測と天気予報を参照できる。

マップの切り替え:黒色「×」印の緑ボタンをクリックして拡大、「-」印の緑ボタンをクリックして縮小、緑色の三角印をクリックして隣りの地図に切り替え


METAR-TAF: